Time;durP1;ratioP1;P1;durP2;ratioP2;P2;SDS_P1;SDS_P2;PMS_P1;PMS_P2;Temp;Humidity;BMP_temperature;BMP_pressure;BME280_temperature;BME280_humidity;BME280_pressure;Samples;Min_cycle;Max_cycle;Signal;HPM_P1;HPM_P2
2023/08/30 00:00:52;;;;;;;1.50;1.40;;;21.20;95.30;;;;;;5021784;28;20186;-70
2023/08/30 00:03:19;;;;;;;2.33;1.40;;;21.20;95.30;;;;;;5035004;28;20196;-70
2023/08/30 00:05:45;;;;;;;1.58;1.48;;;21.30;95.40;;;;;;5044405;28;20211;-70
2023/08/30 00:08:10;;;;;;;1.85;1.70;;;21.20;95.30;;;;;;5045139;28;20646;-70
2023/08/30 00:10:37;;;;;;;1.70;1.60;;;21.20;95.20;;;;;;5026535;28;20235;-70
2023/08/30 00:13:04;;;;;;;2.38;1.73;;;21.20;95.20;;;;;;5042925;28;20180;-70
2023/08/30 00:15:30;;;;;;;2.38;1.70;;;21.20;95.20;;;;;;5042222;28;20195;-70
2023/08/30 00:17:55;;;;;;;2.55;1.63;;;21.20;95.20;;;;;;5036465;28;20181;-70
2023/08/30 00:20:21;;;;;;;2.15;1.40;;;21.20;95.20;;;;;;5036691;28;20195;-70
2023/08/30 00:22:48;;;;;;;1.67;1.58;;;21.20;95.30;;;;;;5036229;28;20182;-70
2023/08/30 00:25:16;;;;;;;1.60;1.30;;;21.20;95.30;;;;;;5041410;28;20190;-68
2023/08/30 00:27:42;;;;;;;1.80;1.27;;;21.20;95.30;;;;;;5052038;28;20194;-70
2023/08/30 00:30:09;;;;;;;1.40;1.30;;;21.20;95.40;;;;;;5044710;28;20217;-70
2023/08/30 00:32:36;;;;;;;1.30;1.20;;;21.20;95.30;;;;;;5043439;28;20189;-70
2023/08/30 00:35:02;;;;;;;1.20;1.20;;;21.20;95.40;;;;;;5024622;28;20179;-71
2023/08/30 00:37:28;;;;;;;1.55;1.30;;;21.20;95.30;;;;;;5041660;28;20245;-71
2023/08/30 00:39:53;;;;;;;1.35;1.15;;;21.20;95.30;;;;;;5053091;28;20186;-70
2023/08/30 00:42:19;;;;;;;1.40;1.30;;;21.20;95.30;;;;;;5045746;28;20179;-70
2023/08/30 00:44:45;;;;;;;2.15;1.48;;;21.20;95.30;;;;;;5044373;28;20613;-70
2023/08/30 00:47:11;;;;;;;2.28;1.30;;;21.20;95.30;;;;;;5026760;28;20285;-69
2023/08/30 00:49:37;;;;;;;1.00;1.00;;;21.20;95.30;;;;;;5026071;28;20206;-70
2023/08/30 00:52:08;;;;;;;1.50;1.33;;;21.20;95.30;;;;;;5041006;28;20272;-70
2023/08/30 00:54:35;;;;;;;1.40;1.17;;;21.20;95.30;;;;;;5049979;28;20182;-70
2023/08/30 00:57:01;;;;;;;1.90;1.63;;;21.20;95.20;;;;;;5027634;28;20209;-69
2023/08/30 00:59:27;;;;;;;2.25;1.42;;;21.20;95.20;;;;;;5044048;28;20186;-71
2023/08/30 01:01:56;;;;;;;1.50;1.40;;;21.20;95.20;;;;;;5032834;28;20187;-70
2023/08/30 01:04:23;;;;;;;1.30;1.20;;;21.20;95.20;;;;;;5006979;28;20301;-71
2023/08/30 01:06:48;;;;;;;4.50;1.40;;;21.20;95.20;;;;;;5052441;28;20206;-70
2023/08/30 01:09:16;;;;;;;1.65;1.55;;;21.20;95.20;;;;;;5047145;28;20588;-70
2023/08/30 01:12:10;;;;;;;1.58;1.48;;;21.20;95.20;;;;;;5042346;28;20190;-70
2023/08/30 01:15:03;;;;;;;1.35;1.25;;;21.20;95.30;;;;;;5034542;28;20201;-70
2023/08/30 01:17:30;;;;;;;1.10;1.00;;;21.20;95.30;;;;;;5040557;28;20211;-70
2023/08/30 01:20:16;;;;;;;1.30;1.20;;;21.20;95.30;;;;;;5019718;28;20341;-70
2023/08/30 01:23:12;;;;;;;1.20;1.20;;;21.20;95.20;;;;;;5050279;28;20195;-70
2023/08/30 01:26:24;;;;;;;1.50;1.40;;;21.20;95.20;;;;;;5049629;28;20210;-70
2023/08/30 01:28:53;;;;;;;1.25;1.15;;;21.20;95.20;;;;;;5048929;28;20541;-70
2023/08/30 01:31:21;;;;;;;1.42;1.30;;;21.20;95.20;;;;;;5046443;28;20194;-70
2023/08/30 01:33:50;;;;;;;1.30;1.20;;;21.20;95.30;;;;;;5041480;28;20178;-70
2023/08/30 01:36:17;;;;;;;2.05;1.30;;;21.20;95.20;;;;;;5023200;28;20196;-70
2023/08/30 01:38:46;;;;;;;1.05;0.98;;;21.20;95.30;;;;;;5046615;28;20236;-70
2023/08/30 01:41:12;;;;;;;1.38;1.00;;;21.20;95.30;;;;;;5029176;28;20202;-70
2023/08/30 01:43:39;;;;;;;1.40;1.30;;;21.20;95.20;;;;;;5026205;28;20221;-70
2023/08/30 01:46:07;;;;;;;2.25;1.45;;;21.20;95.20;;;;;;5027987;28;20293;-71
2023/08/30 01:48:35;;;;;;;1.67;1.40;;;21.20;95.20;;;;;;5026683;28;20208;-71
2023/08/30 01:51:02;;;;;;;1.42;1.33;;;21.20;95.20;;;;;;5020794;28;20169;-70
2023/08/30 01:53:30;;;;;;;1.83;1.33;;;21.20;95.20;;;;;;5019979;28;20184;-70
2023/08/30 01:55:56;;;;;;;1.60;1.48;;;21.20;95.10;;;;;;5030881;28;20230;-70
2023/08/30 01:58:22;;;;;;;1.50;1.40;;;21.20;95.20;;;;;;5033168;28;20230;-70
2023/08/30 02:00:48;;;;;;;1.30;1.20;;;21.20;95.20;;;;;;5041791;28;20191;-71
2023/08/30 02:03:15;;;;;;;1.40;1.30;;;21.20;95.20;;;;;;5042951;28;20234;-70
2023/08/30 02:06:13;;;;;;;1.10;1.10;;;21.20;95.20;;;;;;5041814;28;20780;-70
2023/08/30 02:08:55;;;;;;;1.38;1.27;;;21.20;95.20;;;;;;5041322;28;20210;-70
2023/08/30 02:11:27;;;;;;;1.30;1.20;;;21.20;95.20;;;;;;5045017;28;20189;-71
2023/08/30 02:13:58;;;;;;;1.60;1.27;;;21.20;95.20;;;;;;5022988;28;20182;-70
2023/08/30 02:16:27;;;;;;;1.45;1.35;;;21.20;95.20;;;;;;5046134;28;20207;-69
2023/08/30 02:18:54;;;;;;;1.35;1.25;;;21.10;95.10;;;;;;5043009;28;20564;-70
2023/08/30 02:21:21;;;;;;;1.50;1.40;;;21.20;95.20;;;;;;5026371;28;20201;-70
2023/08/30 02:23:51;;;;;;;1.38;1.38;;;21.20;95.10;;;;;;5024499;28;20232;-70
2023/08/30 02:26:20;;;;;;;1.60;1.50;;;21.20;95.10;;;;;;5040371;28;20257;-69
2023/08/30 02:28:47;;;;;;;1.70;1.60;;;21.10;95.10;;;;;;5040630;28;20199;-70
2023/08/30 02:31:12;;;;;;;1.40;1.30;;;21.10;95.00;;;;;;5034268;28;20182;-70
2023/08/30 02:33:38;;;;;;;1.30;1.30;;;21.10;95.10;;;;;;5039314;28;20184;-70
2023/08/30 02:36:05;;;;;;;1.58;1.17;;;21.10;95.20;;;;;;5026077;28;20754;-70
2023/08/30 02:38:30;;;;;;;1.30;1.20;;;21.10;95.10;;;;;;5042847;28;20236;-69
2023/08/30 02:40:56;;;;;;;1.10;1.10;;;21.10;95.20;;;;;;5032753;28;20179;-70
2023/08/30 02:43:22;;;;;;;1.10;1.02;;;21.10;95.20;;;;;;5025996;28;20186;-70
2023/08/30 02:45:48;;;;;;;1.35;0.90;;;21.10;95.20;;;;;;5042192;28;20218;-70
2023/08/30 02:48:14;;;;;;;1.23;1.13;;;21.10;95.20;;;;;;5029326;28;20195;-70
2023/08/30 02:50:41;;;;;;;1.42;1.30;;;21.10;95.20;;;;;;5047073;28;20191;-70
2023/08/30 02:53:08;;;;;;;1.33;1.23;;;21.20;95.20;;;;;;5019256;28;20176;-70
2023/08/30 02:55:35;;;;;;;1.20;1.20;;;21.10;95.20;;;;;;5032547;28;20179;-70
2023/08/30 02:58:01;;;;;;;1.60;1.40;;;21.10;95.20;;;;;;5036672;28;20198;-70
2023/08/30 03:00:27;;;;;;;1.15;1.15;;;21.10;95.10;;;;;;5030673;28;20270;-70
2023/08/30 03:02:53;;;;;;;1.35;1.20;;;21.10;95.10;;;;;;5014419;28;20325;-70
2023/08/30 03:05:19;;;;;;;1.27;1.17;;;21.10;95.10;;;;;;5013878;28;20171;-70
2023/08/30 03:07:45;;;;;;;1.10;1.10;;;21.10;95.10;;;;;;5014261;28;20292;-70
2023/08/30 03:10:12;;;;;;;1.27;1.17;;;21.10;95.00;;;;;;5031335;28;20336;-70
2023/08/30 03:12:38;;;;;;;1.10;1.10;;;21.10;95.00;;;;;;5018342;28;20175;-70
2023/08/30 03:15:04;;;;;;;1.30;1.20;;;21.10;95.00;;;;;;5034836;28;20294;-69
2023/08/30 03:17:31;;;;;;;1.23;1.20;;;21.10;95.00;;;;;;5018050;28;20219;-71
2023/08/30 03:19:58;;;;;;;1.30;1.20;;;21.10;95.00;;;;;;5018192;28;20198;-70
2023/08/30 03:22:24;;;;;;;1.67;1.58;;;21.10;95.00;;;;;;5018370;28;20183;-69
2023/08/30 03:24:50;;;;;;;1.20;1.20;;;21.10;95.00;;;;;;5034445;28;20187;-70
2023/08/30 03:27:19;;;;;;;1.77;1.08;;;21.10;95.00;;;;;;5035470;28;20203;-70
2023/08/30 03:29:45;;;;;;;1.05;1.02;;;21.10;95.10;;;;;;5034482;28;20203;-71
2023/08/30 03:32:17;;;;;;;1.33;1.23;;;21.10;95.10;;;;;;5034584;28;20187;-70
2023/08/30 03:34:47;;;;;;;1.10;1.10;;;21.10;95.00;;;;;;5017799;28;20198;-70
2023/08/30 03:37:16;;;;;;;1.33;1.23;;;21.10;95.10;;;;;;5034405;28;20211;-70
2023/08/30 03:39:42;;;;;;;1.98;1.15;;;21.10;95.10;;;;;;5014498;28;20188;-70
2023/08/30 03:42:08;;;;;;;1.10;1.10;;;21.10;95.10;;;;;;5022679;28;20198;-70
2023/08/30 03:44:35;;;;;;;1.25;1.15;;;21.10;95.10;;;;;;5021076;28;20179;-70
2023/08/30 03:47:00;;;;;;;1.08;1.08;;;21.10;95.10;;;;;;5023702;28;20219;-69
2023/08/30 03:49:26;;;;;;;0.90;0.90;;;21.10;95.10;;;;;;5015879;28;20218;-70
2023/08/30 03:51:52;;;;;;;1.00;1.00;;;21.10;95.10;;;;;;5034236;28;20639;-70
2023/08/30 03:54:17;;;;;;;1.33;1.23;;;21.10;95.10;;;;;;5017284;28;20179;-70
2023/08/30 03:56:44;;;;;;;1.27;1.27;;;21.10;95.10;;;;;;5034966;28;20195;-70
2023/08/30 03:59:11;;;;;;;1.13;1.13;;;21.10;95.00;;;;;;5033614;28;20183;-70
2023/08/30 04:01:38;;;;;;;1.38;1.27;;;21.10;95.00;;;;;;5027688;28;20184;-70
2023/08/30 04:04:05;;;;;;;1.30;1.30;;;21.10;95.00;;;;;;5021772;28;20202;-70
2023/08/30 04:06:31;;;;;;;1.10;1.10;;;21.10;95.00;;;;;;5030216;28;20204;-69
2023/08/30 04:08:57;;;;;;;1.60;1.50;;;21.10;95.00;;;;;;5031769;28;20208;-70
2023/08/30 04:11:23;;;;;;;1.92;1.50;;;21.10;95.00;;;;;;5022104;28;20194;-70
2023/08/30 04:13:49;;;;;;;1.20;1.20;;;21.10;95.00;;;;;;5045157;28;20184;-69
2023/08/30 04:16:15;;;;;;;1.30;1.10;;;21.10;95.00;;;;;;5050765;28;20213;-70
2023/08/30 04:18:40;;;;;;;1.13;1.13;;;21.10;95.10;;;;;;5041822;28;20179;-69
2023/08/30 04:21:08;;;;;;;1.23;1.17;;;21.10;95.10;;;;;;5045376;28;20191;-70
2023/08/30 04:23:34;;;;;;;1.00;1.00;;;21.10;95.10;;;;;;5045085;28;20186;-69
2023/08/30 04:26:00;;;;;;;1.08;1.00;;;21.10;95.10;;;;;;5044895;28;20207;-69
2023/08/30 04:28:27;;;;;;;1.48;1.38;;;21.10;95.10;;;;;;5028305;28;20213;-70
2023/08/30 04:30:55;;;;;;;1.05;1.05;;;21.10;95.10;;;;;;5028302;28;20174;-70
2023/08/30 04:33:20;;;;;;;1.30;1.20;;;21.10;95.10;;;;;;5028448;28;20206;-70
2023/08/30 04:35:56;;;;;;;1.45;1.35;;;21.10;95.10;;;;;;5028578;28;20230;-70
2023/08/30 04:38:22;;;;;;;0.90;0.90;;;21.10;95.20;;;;;;5034185;28;20186;-71
2023/08/30 04:40:48;;;;;;;1.38;1.33;;;21.10;95.10;;;;;;5041092;28;20176;-71
2023/08/30 04:43:15;;;;;;;1.23;1.17;;;21.10;95.10;;;;;;5033205;28;20179;-70
2023/08/30 04:45:41;;;;;;;1.15;1.10;;;21.10;95.10;;;;;;5040803;28;20206;-70
2023/08/30 04:48:07;;;;;;;1.10;1.10;;;21.10;95.10;;;;;;5027038;28;20183;-71
2023/08/30 04:50:34;;;;;;;1.08;1.08;;;21.10;95.10;;;;;;5036222;28;20186;-70
2023/08/30 04:53:01;;;;;;;1.30;1.20;;;21.10;95.10;;;;;;5042091;28;20182;-70
2023/08/30 04:55:30;;;;;;;1.23;1.20;;;21.10;95.10;;;;;;5027491;28;20197;-70
2023/08/30 04:57:58;;;;;;;1.50;1.40;;;21.10;95.10;;;;;;5026797;28;20182;-70
2023/08/30 05:00:25;;;;;;;1.52;1.42;;;21.10;95.10;;;;;;5045680;28;20179;-70
2023/08/30 05:02:52;;;;;;;1.70;1.60;;;21.10;95.10;;;;;;5044479;28;20185;-69
2023/08/30 05:05:17;;;;;;;1.40;1.30;;;21.00;95.00;;;;;;5044325;28;20182;-70
2023/08/30 05:07:43;;;;;;;1.60;1.50;;;21.10;95.30;;;;;;5035670;28;20178;-69
2023/08/30 05:10:09;;;;;;;1.23;1.20;;;21.10;95.30;;;;;;5043875;28;20196;-70
2023/08/30 05:12:36;;;;;;;1.30;1.30;;;21.10;95.30;;;;;;5043869;28;20218;-70
2023/08/30 05:15:03;;;;;;;0.95;0.95;;;21.10;95.30;;;;;;5025788;28;20175;-69
2023/08/30 05:17:29;;;;;;;1.13;1.10;;;21.10;95.30;;;;;;5045802;28;20206;-70
2023/08/30 05:19:56;;;;;;;1.23;1.13;;;21.10;95.30;;;;;;5027506;28;20197;-70
2023/08/30 05:22:22;;;;;;;1.17;1.13;;;21.10;95.30;;;;;;5043884;28;20180;-70
2023/08/30 05:24:48;;;;;;;1.13;1.13;;;21.10;95.50;;;;;;5044222;28;20194;-70
2023/08/30 05:27:14;;;;;;;1.00;1.00;;;21.00;95.30;;;;;;5040502;28;20682;-71
2023/08/30 05:29:40;;;;;;;1.50;1.40;;;21.10;95.30;;;;;;5023466;28;20207;-69
2023/08/30 05:32:06;;;;;;;1.20;1.20;;;21.00;95.40;;;;;;5025432;28;20179;-69
2023/08/30 05:34:35;;;;;;;1.10;1.10;;;21.10;95.70;;;;;;5043167;28;20175;-69
2023/08/30 05:37:16;;;;;;;2.25;1.50;;;21.00;96.50;;;;;;5034476;28;20213;-69
2023/08/30 05:40:20;;;;;;;1.30;1.20;;;21.10;98.10;;;;;;5030683;28;20206;-69
2023/08/30 05:42:46;;;;;;;1.60;1.50;;;21.10;99.30;;;;;;5013933;28;20187;-70
2023/08/30 05:45:11;;;;;;;1.48;1.38;;;21.10;99.20;;;;;;5030744;28;20284;-69
2023/08/30 05:47:37;;;;;;;1.10;1.10;;;21.10;99.60;;;;;;5045587;28;20198;-69
2023/08/30 05:50:03;;;;;;;2.25;1.20;;;21.10;99.90;;;;;;5039623;28;20207;-70
2023/08/30 05:52:29;;;;;;;1.98;1.20;;;21.10;99.90;;;;;;5034990;28;20559;-69
2023/08/30 05:54:55;;;;;;;2.60;1.30;;;21.10;99.90;;;;;;5033983;28;20178;-69
2023/08/30 05:57:22;;;;;;;2.00;1.33;;;21.10;99.90;;;;;;5043227;28;20199;-69
2023/08/30 05:59:48;;;;;;;1.00;1.00;;;21.10;99.90;;;;;;5044399;28;20182;-69
2023/08/30 06:02:13;;;;;;;1.20;1.10;;;21.10;99.90;;;;;;5024035;28;20183;-69
2023/08/30 06:04:39;;;;;;;3.15;1.25;;;21.10;99.90;;;;;;5039362;28;20191;-69
2023/08/30 06:07:05;;;;;;;1.10;1.10;;;21.10;99.90;;;;;;5048697;28;20344;-69
2023/08/30 06:09:30;;;;;;;1.80;1.20;;;21.10;99.90;;;;;;5026516;28;20210;-69
2023/08/30 06:11:56;;;;;;;2.80;1.40;;;21.10;99.90;;;;;;5026479;28;20240;-69
2023/08/30 06:14:22;;;;;;;1.67;1.40;;;21.10;99.90;;;;;;5039273;28;20240;-69
2023/08/30 06:16:48;;;;;;;1.77;1.33;;;21.10;99.90;;;;;;5039499;28;20206;-68
2023/08/30 06:19:14;;;;;;;3.90;1.40;;;21.10;99.90;;;;;;5041663;28;20195;-68
2023/08/30 06:21:40;;;;;;;1.38;1.23;;;21.10;99.90;;;;;;5024927;28;20265;-72
2023/08/30 06:24:06;;;;;;;3.17;1.30;;;21.10;99.90;;;;;;5048545;28;20198;-69
2023/08/30 06:26:32;;;;;;;1.60;1.50;;;21.10;99.90;;;;;;5046126;28;20203;-69
2023/08/30 06:28:58;;;;;;;1.83;1.40;;;21.10;99.90;;;;;;5039475;28;20264;-69
2023/08/30 06:31:26;;;;;;;1.60;1.42;;;21.10;99.90;;;;;;5042522;28;20183;-69
2023/08/30 06:33:51;;;;;;;2.47;1.85;;;21.10;99.90;;;;;;5026190;28;20187;-69
2023/08/30 06:36:18;;;;;;;1.73;1.63;;;21.10;99.90;;;;;;5023403;28;20713;-69
2023/08/30 06:38:44;;;;;;;1.70;1.60;;;21.10;99.90;;;;;;5040253;28;20180;-68
2023/08/30 06:41:09;;;;;;;3.85;1.65;;;21.10;99.90;;;;;;5041468;28;20333;-69
2023/08/30 06:43:35;;;;;;;3.97;1.55;;;21.10;99.90;;;;;;5042588;28;20182;-68
2023/08/30 06:46:01;;;;;;;1.50;1.40;;;21.10;99.90;;;;;;5039362;28;20211;-70
2023/08/30 06:48:27;;;;;;;3.78;1.52;;;21.10;99.90;;;;;;5030596;28;20187;-68
2023/08/30 06:50:57;;;;;;;1.30;1.20;;;21.10;99.90;;;;;;5022946;28;20181;-69
2023/08/30 06:53:23;;;;;;;2.08;1.67;;;21.10;99.90;;;;;;5047821;28;20186;-69
2023/08/30 06:55:58;;;;;;;1.92;1.42;;;21.10;99.90;;;;;;5028725;28;20190;-70
2023/08/30 06:58:24;;;;;;;1.50;1.40;;;21.10;99.90;;;;;;5042214;28;20184;-69
2023/08/30 07:00:49;;;;;;;1.23;1.13;;;21.10;99.90;;;;;;5035821;28;20183;-69
2023/08/30 07:03:15;;;;;;;2.45;1.40;;;21.20;99.90;;;;;;5023833;28;20195;-69
2023/08/30 07:05:43;;;;;;;2.28;1.23;;;21.10;99.90;;;;;;5050473;28;20207;-70
2023/08/30 07:08:09;;;;;;;2.13;1.67;;;21.10;99.90;;;;;;5040608;28;20251;-69
2023/08/30 07:10:35;;;;;;;2.70;1.70;;;21.20;99.90;;;;;;5025075;28;20365;-69
2023/08/30 07:13:01;;;;;;;2.35;1.58;;;21.10;99.90;;;;;;5046492;28;20182;-70
2023/08/30 07:15:28;;;;;;;1.70;1.60;;;21.20;99.90;;;;;;5042984;28;20190;-68
2023/08/30 07:17:53;;;;;;;1.58;1.45;;;21.10;99.90;;;;;;5050277;28;20178;-69
2023/08/30 07:20:19;;;;;;;3.15;1.50;;;21.10;99.90;;;;;;5049621;28;20673;-69
2023/08/30 07:22:45;;;;;;;1.50;1.40;;;21.10;99.90;;;;;;5028266;28;20187;-68
2023/08/30 07:25:12;;;;;;;2.20;1.63;;;21.10;99.90;;;;;;5035951;28;20191;-69
2023/08/30 07:27:38;;;;;;;2.53;1.60;;;21.10;99.90;;;;;;5047684;28;20234;-69
2023/08/30 07:30:05;;;;;;;3.08;1.63;;;21.10;99.90;;;;;;5043442;28;20217;-70
2023/08/30 07:32:30;;;;;;;2.97;1.50;;;21.10;99.90;;;;;;5028296;28;20186;-69
2023/08/30 07:34:56;;;;;;;3.08;1.80;;;21.20;99.90;;;;;;5045333;28;20186;-69
2023/08/30 07:37:22;;;;;;;2.63;1.30;;;21.10;99.90;;;;;;5032324;28;20215;-69
2023/08/30 07:39:48;;;;;;;2.03;1.55;;;21.20;99.90;;;;;;5041978;28;20186;-70
2023/08/30 07:42:15;;;;;;;2.97;1.85;;;21.20;99.90;;;;;;5040904;28;20278;-69
2023/08/30 07:44:41;;;;;;;1.50;1.40;;;21.20;99.90;;;;;;5038222;28;20249;-69
2023/08/30 07:47:06;;;;;;;8.10;1.60;;;21.20;99.90;;;;;;5021642;28;20253;-72
2023/08/30 07:49:32;;;;;;;3.15;1.60;;;21.20;99.90;;;;;;5041722;28;20202;-69
2023/08/30 07:51:58;;;;;;;8.52;1.80;;;21.20;99.90;;;;;;5043115;28;20264;-70
2023/08/30 07:54:23;;;;;;;2.47;1.55;;;21.10;99.90;;;;;;5040749;28;20187;-69
2023/08/30 07:56:49;;;;;;;4.22;1.50;;;21.10;99.90;;;;;;5029300;28;20199;-69
2023/08/30 07:59:15;;;;;;;5.43;1.70;;;21.20;99.90;;;;;;5050245;28;20186;-68
2023/08/30 08:01:41;;;;;;;4.55;1.90;;;21.20;99.90;;;;;;5025343;28;20195;-68
2023/08/30 08:04:06;;;;;;;2.67;1.38;;;21.20;99.90;;;;;;5043078;28;20187;-68
2023/08/30 08:06:33;;;;;;;5.78;1.65;;;21.20;99.90;;;;;;5028753;28;20221;-68
2023/08/30 08:08:59;;;;;;;3.28;1.80;;;21.20;99.90;;;;;;5046882;28;20207;-69
2023/08/30 08:11:25;;;;;;;3.60;1.60;;;21.20;99.90;;;;;;5042107;28;20187;-68
2023/08/30 08:13:51;;;;;;;2.45;1.80;;;21.20;99.90;;;;;;5041849;28;20215;-70
2023/08/30 08:16:17;;;;;;;1.85;1.75;;;21.30;99.90;;;;;;5042529;28;20207;-68
2023/08/30 08:18:43;;;;;;;8.65;2.20;;;21.30;99.90;;;;;;5034551;28;20238;-68
2023/08/30 08:21:08;;;;;;;4.53;1.60;;;21.30;99.90;;;;;;5041722;28;20260;-70
2023/08/30 08:23:34;;;;;;;5.22;1.90;;;21.30;99.90;;;;;;5042858;28;20290;-69
2023/08/30 08:26:02;;;;;;;4.22;1.63;;;21.40;99.90;;;;;;5042620;28;20210;-69
2023/08/30 08:28:28;;;;;;;2.25;1.60;;;21.30;99.90;;;;;;5045294;28;20175;-70
2023/08/30 08:30:54;;;;;;;2.97;1.70;;;21.30;99.90;;;;;;5046120;28;20316;-69
2023/08/30 08:33:22;;;;;;;4.85;1.65;;;21.30;99.90;;;;;;5043610;28;20194;-67
2023/08/30 08:35:49;;;;;;;3.50;2.03;;;21.30;99.90;;;;;;5047395;28;20206;-68
2023/08/30 08:38:15;;;;;;;4.03;2.08;;;21.30;99.90;;;;;;5030580;28;20212;-70
2023/08/30 08:40:41;;;;;;;2.22;1.65;;;21.30;99.90;;;;;;5015361;28;20216;-70
2023/08/30 08:43:12;;;;;;;4.35;2.30;;;21.30;99.90;;;;;;5029201;28;20277;-69
2023/08/30 08:45:38;;;;;;;5.30;1.90;;;21.40;99.90;;;;;;5024463;28;20207;-68
2023/08/30 08:48:05;;;;;;;2.83;1.70;;;21.30;99.90;;;;;;5041486;28;20199;-68
2023/08/30 08:50:32;;;;;;;3.03;2.10;;;21.30;99.80;;;;;;5041264;28;20218;-69
2023/08/30 08:53:01;;;;;;;5.43;1.90;;;21.30;99.70;;;;;;5034671;28;20204;-67
2023/08/30 08:55:31;;;;;;;2.58;2.00;;;21.30;99.40;;;;;;5043437;28;20187;-68
2023/08/30 08:57:59;;;;;;;3.55;1.73;;;21.30;99.40;;;;;;5041039;28;20271;-70
2023/08/30 09:00:26;;;;;;;4.22;1.80;;;21.30;99.50;;;;;;5049409;28;20186;-68
2023/08/30 09:02:54;;;;;;;2.55;1.60;;;21.40;99.50;;;;;;5040906;28;20175;-68
2023/08/30 09:05:20;;;;;;;2.50;1.80;;;21.40;99.40;;;;;;5042410;28;20601;-70
2023/08/30 09:07:47;;;;;;;2.80;1.55;;;21.30;99.30;;;;;;5026849;28;20196;-69
2023/08/30 09:10:12;;;;;;;1.92;1.63;;;21.40;99.30;;;;;;5044219;28;20205;-68
2023/08/30 09:12:38;;;;;;;2.30;1.67;;;21.40;99.20;;;;;;5040842;28;20183;-68
2023/08/30 09:15:04;;;;;;;2.28;1.70;;;21.40;99.30;;;;;;5041561;28;20193;-69
2023/08/30 09:17:38;;;;;;;1.95;1.60;;;21.40;99.00;;;;;;5034097;28;20198;-69
2023/08/30 09:20:10;;;;;;;2.28;1.65;;;21.40;98.90;;;;;;5045124;28;20206;-68
2023/08/30 09:22:38;;;;;;;4.32;1.73;;;21.40;98.80;;;;;;5041299;28;20274;-68
2023/08/30 09:25:05;;;;;;;2.45;1.50;;;21.40;98.80;;;;;;5040627;28;20183;-68
2023/08/30 09:27:34;;;;;;;1.83;1.50;;;21.40;98.50;;;;;;5049759;28;20214;-68
2023/08/30 09:30:00;;;;;;;6.72;2.03;;;21.40;98.10;;;;;;5029920;28;20288;-68
2023/08/30 09:32:26;;;;;;;3.22;1.52;;;21.30;98.10;;;;;;5028462;28;20198;-69
2023/08/30 09:34:53;;;;;;;2.15;1.52;;;21.40;98.70;;;;;;5046352;28;20201;-68
2023/08/30 09:37:21;;;;;;;2.95;1.60;;;21.40;98.40;;;;;;5043330;28;20210;-69
2023/08/30 09:39:53;;;;;;;2.45;1.67;;;21.40;98.20;;;;;;5020392;28;20667;-69
2023/08/30 09:42:19;;;;;;;1.70;1.60;;;21.30;98.10;;;;;;5011805;28;20195;-67
2023/08/30 09:44:44;;;;;;;2.10;1.58;;;21.40;98.10;;;;;;5039987;28;20184;-68
2023/08/30 09:47:13;;;;;;;3.60;1.63;;;21.40;97.90;;;;;;5041357;28;20241;-69
2023/08/30 09:49:46;;;;;;;2.90;1.70;;;21.30;97.90;;;;;;5032988;28;20226;-66
2023/08/30 09:52:16;;;;;;;1.58;1.40;;;21.40;97.90;;;;;;5043360;28;20187;-67
2023/08/30 09:54:43;;;;;;;3.08;1.48;;;21.40;98.00;;;;;;5041444;28;20191;-68
2023/08/30 09:57:12;;;;;;;3.55;1.80;;;21.40;97.70;;;;;;5029915;28;20199;-68
2023/08/30 09:59:39;;;;;;;2.28;1.65;;;21.40;97.90;;;;;;5043271;28;20581;-68
2023/08/30 10:02:08;;;;;;;2.45;1.60;;;21.40;97.80;;;;;;5044567;28;20178;-68
2023/08/30 10:04:38;;;;;;;3.35;1.77;;;21.40;97.80;;;;;;5042401;28;20243;-68
2023/08/30 10:07:05;;;;;;;2.50;1.42;;;21.40;97.90;;;;;;5022995;28;20219;-68
2023/08/30 10:09:32;;;;;;;1.77;1.20;;;21.40;97.80;;;;;;5031829;28;20287;-68
2023/08/30 10:12:01;;;;;;;2.28;1.60;;;21.40;97.60;;;;;;5046613;28;20175;-68
2023/08/30 10:14:27;;;;;;;3.63;1.52;;;21.40;97.70;;;;;;5041480;28;20187;-68
2023/08/30 10:17:03;;;;;;;4.93;1.35;;;21.40;97.30;;;;;;5042763;28;20823;-68
2023/08/30 10:19:29;;;;;;;2.13;1.50;;;21.40;97.40;;;;;;5042535;28;20198;-69
2023/08/30 10:22:14;;;;;;;1.30;1.17;;;21.40;97.30;;;;;;5044081;28;20259;-68
2023/08/30 10:25:05;;;;;;;1.27;1.17;;;21.40;97.30;;;;;;5048503;28;20194;-69
2023/08/30 10:27:37;;;;;;;3.13;1.67;;;21.40;97.20;;;;;;5046946;28;20272;-70
2023/08/30 10:30:08;;;;;;;2.75;1.30;;;21.40;97.60;;;;;;5039141;28;20215;-69
2023/08/30 10:32:43;;;;;;;2.00;1.08;;;21.50;97.50;;;;;;5047375;28;20179;-69
2023/08/30 10:35:14;;;;;;;2.80;1.33;;;21.40;97.30;;;;;;5015436;28;20251;-69
2023/08/30 10:37:42;;;;;;;2.17;1.50;;;21.40;97.40;;;;;;5042548;28;20218;-69
2023/08/30 10:40:08;;;;;;;2.08;1.50;;;21.50;97.30;;;;;;5042157;28;20266;-69
2023/08/30 10:42:34;;;;;;;1.55;1.45;;;21.50;96.90;;;;;;5038915;28;20738;-68
2023/08/30 10:45:07;;;;;;;1.27;1.17;;;21.40;96.70;;;;;;5038887;28;20244;-69
2023/08/30 10:47:38;;;;;;;2.42;1.42;;;21.50;96.90;;;;;;5039751;28;20207;-69
2023/08/30 10:50:12;;;;;;;3.25;1.67;;;21.40;96.90;;;;;;5045213;28;20214;-69
2023/08/30 10:52:38;;;;;;;3.47;1.30;;;21.40;96.80;;;;;;5040861;28;20190;-69
2023/08/30 10:55:15;;;;;;;2.08;1.33;;;21.40;96.60;;;;;;5036905;28;20543;-69
2023/08/30 10:57:45;;;;;;;2.90;1.42;;;21.40;96.60;;;;;;5040924;28;20206;-69
2023/08/30 11:00:17;;;;;;;1.50;1.40;;;21.40;96.50;;;;;;5026073;28;20190;-68
2023/08/30 11:02:50;;;;;;;2.78;1.48;;;21.40;96.60;;;;;;5041207;28;20190;-68
2023/08/30 11:05:18;;;;;;;3.47;1.40;;;21.50;96.50;;;;;;5045289;28;20186;-71
2023/08/30 11:07:45;;;;;;;2.72;1.67;;;21.40;96.60;;;;;;5041056;28;20182;-69
2023/08/30 11:10:11;;;;;;;2.08;1.15;;;21.50;96.50;;;;;;5028321;28;20245;-68
2023/08/30 11:12:40;;;;;;;1.90;1.40;;;21.50;96.80;;;;;;5042253;28;20182;-69
2023/08/30 11:15:08;;;;;;;1.30;1.20;;;21.50;96.60;;;;;;5038482;28;20191;-69
2023/08/30 11:17:34;;;;;;;2.30;1.30;;;21.50;96.70;;;;;;5040596;28;20202;-68
2023/08/30 11:20:16;;;;;;;1.58;1.48;;;21.50;96.50;;;;;;5042100;28;20190;-69
2023/08/30 11:22:45;;;;;;;2.00;1.20;;;21.50;96.30;;;;;;5042100;28;20219;-68
2023/08/30 11:25:13;;;;;;;1.63;1.10;;;21.50;96.40;;;;;;5033604;28;20179;-68
2023/08/30 11:27:40;;;;;;;3.22;1.42;;;21.50;96.40;;;;;;5041486;28;20203;-68
2023/08/30 11:30:08;;;;;;;1.40;1.20;;;21.50;96.00;;;;;;5038531;28;20211;-68
2023/08/30 11:32:44;;;;;;;1.40;1.25;;;21.40;96.00;;;;;;5043321;28;20187;-69
2023/08/30 11:35:10;;;;;;;2.28;1.40;;;21.50;96.50;;;;;;5047160;28;20190;-69
2023/08/30 11:37:36;;;;;;;1.20;1.10;;;21.50;96.40;;;;;;5045961;28;20204;-68
2023/08/30 11:40:06;;;;;;;1.85;1.23;;;21.50;96.30;;;;;;5029457;28;20193;-68
2023/08/30 11:42:32;;;;;;;1.40;1.25;;;21.50;96.30;;;;;;5047118;28;20193;-69
2023/08/30 11:45:04;;;;;;;1.95;1.20;;;21.50;96.20;;;;;;5045698;28;20187;-69
2023/08/30 11:47:30;;;;;;;1.60;1.50;;;21.50;96.50;;;;;;5045988;28;20202;-68
2023/08/30 11:49:57;;;;;;;1.42;1.33;;;21.50;96.00;;;;;;5034161;28;20355;-68
2023/08/30 11:52:25;;;;;;;2.47;1.38;;;21.50;96.00;;;;;;5050732;28;20274;-69
2023/08/30 11:54:52;;;;;;;2.25;1.30;;;21.50;96.10;;;;;;5043840;28;20186;-68
2023/08/30 11:57:19;;;;;;;2.15;1.20;;;21.50;96.10;;;;;;5048643;28;20374;-69
2023/08/30 11:59:44;;;;;;;1.40;1.10;;;21.50;95.80;;;;;;5027187;28;20269;-68
2023/08/30 12:02:14;;;;;;;1.10;1.10;;;21.50;95.80;;;;;;5041881;28;20247;-68
2023/08/30 12:04:45;;;;;;;1.60;1.25;;;21.50;95.70;;;;;;5042655;28;20190;-68
2023/08/30 12:07:22;;;;;;;1.73;1.15;;;21.50;95.90;;;;;;5029070;28;20208;-68
2023/08/30 12:09:48;;;;;;;2.20;1.48;;;21.50;95.90;;;;;;5044420;28;20210;-69
2023/08/30 12:12:14;;;;;;;2.30;1.27;;;21.50;95.70;;;;;;5043486;28;20190;-71
2023/08/30 12:14:40;;;;;;;3.05;1.42;;;21.50;95.80;;;;;;5042696;28;20193;-68
2023/08/30 12:17:08;;;;;;;1.30;1.20;;;21.50;95.80;;;;;;5021357;28;20289;-70
2023/08/30 12:19:34;;;;;;;1.52;1.42;;;21.50;95.80;;;;;;5046229;28;20210;-70
2023/08/30 12:22:10;;;;;;;1.45;1.20;;;21.50;95.70;;;;;;5046363;28;20179;-68
2023/08/30 12:24:46;;;;;;;3.08;1.50;;;21.50;95.60;;;;;;5020464;28;20191;-68
2023/08/30 12:27:13;;;;;;;1.95;1.20;;;21.50;95.50;;;;;;5044634;28;20217;-68
2023/08/30 12:29:40;;;;;;;1.33;1.23;;;21.50;95.30;;;;;;5045388;28;20211;-69
2023/08/30 12:32:07;;;;;;;1.63;1.40;;;21.50;95.50;;;;;;5041450;28;20191;-69
2023/08/30 12:34:33;;;;;;;1.38;1.00;;;21.50;95.30;;;;;;5032622;28;20182;-69
2023/08/30 12:36:59;;;;;;;1.60;1.50;;;21.50;95.00;;;;;;5036503;28;20285;-68
2023/08/30 12:39:25;;;;;;;1.95;1.35;;;21.50;95.30;;;;;;5033120;28;20183;-68
2023/08/30 12:41:51;;;;;;;2.13;1.20;;;21.50;94.90;;;;;;5043229;28;20195;-69
2023/08/30 12:44:17;;;;;;;2.40;1.23;;;21.50;95.30;;;;;;5044639;28;20199;-68
2023/08/30 12:46:42;;;;;;;2.05;1.50;;;21.50;95.20;;;;;;5031261;28;20250;-68
2023/08/30 12:49:08;;;;;;;1.48;1.38;;;21.50;95.10;;;;;;5044695;28;20268;-68
2023/08/30 12:51:34;;;;;;;1.55;1.45;;;21.50;95.00;;;;;;5044538;28;20232;-68